nws-alerts: Checking more than four warning/county codes can delay the loading of your pages. You should use a cron job to get the data.

Nearby METAR Reports

 

KFCI - Richmond/Chester, Virginia, USA
Distance from station: ESE 7mi, 11km
Updated: Sat, 20-Apr-2024 8:56pm EDT
Clear
Clear
 Wind from calm
Wind: Calm
Temperature: 55°F , 13°C
Dew Point: 48°F , 9°C
Humidity: 77%
Barometer: 29.92 inHg , 1013.2 hPa
Clouds: Clear
Visibility: 10 miles , 16 km
2024/04/21 00:56 KFCI 210056Z AUTO 00000KT 10SM CLR 13/09 A2992 RMK AO2 SLP142 T01330089
KRIC - Richmond, Virginia, USA
Distance from station: ENE 19mi, 30km
Updated: Sat, 20-Apr-2024 8:54pm EDT
Partly cloudy
Partly cloudy
 Wind from ESE
Wind: ESE 5 mph , 7 km/h
Temperature: 61°F , 16°C
Dew Point: 52°F , 11°C
Humidity: 72%
Barometer: 29.92 inHg , 1013.2 hPa
Clouds: Partly cloudy
Visibility: 10 miles , 16 km
Cloud details: Few Clouds 6000 ft
Partly cloudy 25000 ft
2024/04/21 00:54 KRIC 210054Z 12004KT 10SM FEW060 SCT250 16/11 A2992 RMK AO2 SLP135 T01610106
 
KPTB - Petersburg, Virginia, USA
Distance from station: SSE 19mi, 31km
Updated: Sat, 20-Apr-2024 8:55pm EDT
Clear
Clear
 Wind from calm
Wind: Calm
Temperature: 55°F , 13°C
Dew Point: 52°F , 11°C
Humidity: 88%
Barometer: 29.93 inHg , 1013.5 hPa
Clouds: Clear
Visibility: 10 miles , 16 km
2024/04/21 00:55 KPTB 210055Z AUTO 00000KT 10SM CLR 13/11 A2993 RMK AO2 T01280106
KOFP - Richmond/Hanover, Virginia, USA
Distance from station: NNE 22mi, 36km
Updated: Sat, 20-Apr-2024 8:54pm EDT
Clear
Clear
 Wind from calm
Wind: Calm
Temperature: 61°F , 16°C
Dew Point: 52°F , 11°C
Humidity: 72%
Barometer: 29.93 inHg , 1013.5 hPa
Clouds: Clear
Visibility: 10 miles , 16 km
2024/04/21 00:54 KOFP 210054Z AUTO 00000KT 10SM CLR 16/11 A2993 RMK AO2 SLP133 T01560106
 
KW96 - Quinton, Virginia, USA
Distance from station: E 28mi, 46km
Updated: Sat, 20-Apr-2024 8:55pm EDT
Clear
Clear
 Wind from calm
Wind: Calm
Temperature: 61°F , 16°C
Dew Point: 55°F , 13°C
Humidity: 83%
Barometer: 29.92 inHg , 1013.2 hPa
Clouds: Clear
Visibility: 10 miles , 16 km
2024/04/21 00:55 KW96 210055Z AUTO 00000KT 10SM CLR 16/13 A2992 RMK AO1 T01550131
KBKT - Blackstone Army, Virginia, USA
Distance from station: SW 30mi, 48km
Updated: Sat, 20-Apr-2024 8:55pm EDT
Clear
Clear
 Wind from calm
Wind: Calm
Temperature: 59°F , 15°C
Dew Point: 43°F , 6°C
Humidity: 55%
Barometer: 29.94 inHg , 1013.9 hPa
Clouds: Clear
Visibility: 10 miles , 16 km
2024/04/21 00:55 KBKT 210055Z AUTO 00000KT 10SM CLR 15/06 A2994 RMK AO1 T01500064
 
KW81 - Crewe, Virginia, USA
Distance from station: SW 30mi, 49km
Updated: Sat, 20-Apr-2024 8:55pm EDT
Clear
Clear
 Wind from calm
Wind: Calm
Temperature: 55°F , 13°C
Dew Point: 43°F , 6°C
Humidity: 63%
Barometer: 29.93 inHg , 1013.5 hPa
Clouds: Clear
Visibility: 10 miles , 16 km
2024/04/21 00:55 KW81 210055Z AUTO 00000KT 10SM CLR 13/06 A2993 RMK AO1 T01300060
K7W4 - Bumpass, Virginia, USA
Distance from station: N 38mi, 61km
Updated: Sat, 20-Apr-2024 8:55pm EDT
Clear
Clear
 Wind from calm
Wind: Calm
Temperature: 57°F , 14°C
Dew Point: 50°F , 10°C
Humidity: 77%
Barometer: 29.92 inHg , 1013.2 hPa
Clouds: Clear
Visibility: 10 miles , 16 km
2024/04/21 00:55 K7W4 210055Z AUTO 00000KT 10SM CLR 14/10 A2992 RMK AO1 T01440099
 
KFVX - Farmville, Virginia, USA
Distance from station: W 43mi, 69km
Updated: Sat, 20-Apr-2024 8:55pm EDT
Clear
Clear
 Wind from calm
Wind: Calm
Temperature: 59°F , 15°C
Dew Point: 39°F , 4°C
Humidity: 48%
Barometer: 29.93 inHg , 1013.5 hPa
Clouds: Clear
Visibility: 10 miles , 16 km
2024/04/21 00:55 KFVX 210055Z AUTO 00000KT 10SM CLR 15/04 A2993 RMK AO2 LTG DSNT W T01460037
KW31 - Kenbridge, Virginia, USA
Distance from station: SW 43mi, 70km
Updated: Sat, 20-Apr-2024 8:55pm EDT
Clear
Clear
 Wind from calm
Wind: Calm
Temperature: 61°F , 16°C
Dew Point: 48°F , 9°C
Humidity: 63%
Barometer: 29.94 inHg , 1013.9 hPa
Clouds: Clear
Visibility: 10 miles , 16 km
2024/04/21 00:55 KW31 210055Z AUTO 00000KT 10SM CLR 16/09 A2994 RMK AO1 T01560086
 
KLKU - Louisa, Virginia, USA
Distance from station: NNW 44mi, 72km
Updated: Sat, 20-Apr-2024 8:55pm EDT
Clear
Clear
 Wind from NW
Wind: NW 6 mph , 9 km/h
Temperature: 54°F , 12°C
Dew Point: 41°F , 5°C
Humidity: 63%
Barometer: 29.94 inHg , 1013.9 hPa
Clouds: Clear
Visibility: 10 miles , 16 km
2024/04/21 00:55 KLKU 210055Z AUTO 32005KT 10SM CLR 12/05 A2994 RMK AO2 T01210045
KLVL - Lawrenceville, Virginia, USA
Distance from station: S 46mi, 75km
Updated: Sat, 20-Apr-2024 8:55pm EDT
Clear
Clear
 Wind from calm
Wind: Calm
Temperature: 61°F , 16°C
Dew Point: 52°F , 11°C
Humidity: 72%
Barometer: 29.94 inHg , 1013.9 hPa
Clouds: Clear
2024/04/21 00:55 KLVL 210055Z AUTO 00000KT CLR 16/11 A2994 RMK AO1 T01550107
 
KAKQ - Norfolk/Wakefld, Virginia, USA
Distance from station: SE 47mi, 75km
Updated: Sat, 20-Apr-2024 8:54pm EDT
Clear
Clear
 Wind from calm
Wind: Calm
Temperature: 61°F , 16°C
Dew Point: 57°F , 14°C
Humidity: 88%
Barometer: 29.93 inHg , 1013.5 hPa
Clouds: Clear
Visibility: 10 miles , 16 km
2024/04/21 00:54 KAKQ 210054Z AUTO 00000KT 10SM CLR 16/14 A2993 RMK AO2 SLP135 T01610144
KFYJ - West Point, Virginia, USA
Distance from station: E 48mi, 78km
Updated: Sat, 20-Apr-2024 8:55pm EDT
Clear
Clear
 Wind from calm
Wind: Calm
Temperature: 57°F , 14°C
Dew Point: 54°F , 12°C
Humidity: 88%
Barometer: 29.94 inHg , 1013.9 hPa
Clouds: Clear
Visibility: 10 miles , 16 km
2024/04/21 00:55 KFYJ 210055Z AUTO 00000KT 10SM CLR 14/12 A2994 RMK AO1 T01400117